Time;durP1;ratioP1;P1;durP2;ratioP2;P2;SDS_P1;SDS_P2;PMS_P1;PMS_P2;Temp;Humidity;BMP_temperature;BMP_pressure;BME280_temperature;BME280_humidity;BME280_pressure;Samples;Min_cycle;Max_cycle;Signal;HPM_P1;HPM_P2
2024/02/21 00:02:18;;;;;;;7.50;2.20;;;;;;;7.39;100.00;97265.19;5031339;28;20221;-67
2024/02/21 00:04:45;;;;;;;6.10;2.43;;;;;;;7.26;100.00;97273.44;5032583;28;20217;-67
2024/02/21 00:07:12;;;;;;;6.67;1.60;;;;;;;7.31;100.00;97267.66;5032270;28;20992;-67
2024/02/21 00:09:39;;;;;;;3.97;1.83;;;;;;;7.50;100.00;97259.84;5033684;28;20201;-67
2024/02/21 00:12:07;;;;;;;5.03;1.97;;;;;;;7.45;100.00;97253.38;5032693;28;20232;-67
2024/02/21 00:14:33;;;;;;;7.17;2.07;;;;;;;7.35;100.00;97260.38;5034052;28;20201;-68
2024/02/21 00:17:00;;;;;;;5.00;1.70;;;;;;;7.38;100.00;97258.31;5034423;28;20204;-68
2024/02/21 00:19:26;;;;;;;3.30;1.70;;;;;;;7.28;100.00;97256.63;5033764;28;20663;-67
2024/02/21 00:21:53;;;;;;;4.30;2.07;;;;;;;7.38;100.00;97253.06;5033021;28;20229;-66
2024/02/21 00:24:19;;;;;;;9.87;3.07;;;;;;;7.13;100.00;97246.59;5033439;28;20225;-67
2024/02/21 00:26:47;;;;;;;4.97;2.10;;;;;;;7.45;100.00;97241.06;5034116;28;20224;-68
2024/02/21 00:29:14;;;;;;;5.23;2.33;;;;;;;7.33;100.00;97236.91;5033557;28;20901;-67
2024/02/21 00:31:40;;;;;;;12.53;2.47;;;;;;;7.35;100.00;97237.56;5033549;28;20572;-67
2024/02/21 00:34:07;;;;;;;4.90;2.00;;;;;;;7.37;100.00;97240.91;5034768;28;20198;-66
2024/02/21 00:36:33;;;;;;;8.23;2.40;;;;;;;7.38;100.00;97237.34;5033133;28;20207;-66
2024/02/21 00:39:00;;;;;;;3.90;1.90;;;;;;;7.38;100.00;97237.34;5034045;28;20204;-67
2024/02/21 00:41:26;;;;;;;4.27;1.83;;;;;;;7.33;100.00;97247.38;5032424;28;20710;-67
2024/02/21 00:43:54;;;;;;;10.90;2.47;;;;;;;7.51;100.00;97234.44;5034348;28;20212;-66
2024/02/21 00:46:20;;;;;;;8.40;2.53;;;;;;;7.43;100.00;97231.66;5032729;28;20209;-67
2024/02/21 00:48:47;;;;;;;9.17;2.50;;;;;;;7.34;100.00;97230.69;5034221;28;20582;-68
2024/02/21 00:51:14;;;;;;;9.37;3.00;;;;;;;7.60;100.00;97226.63;5032278;28;20208;-66
2024/02/21 00:53:41;;;;;;;4.13;2.00;;;;;;;7.28;100.00;97239.09;5034042;28;20686;-67
2024/02/21 00:56:07;;;;;;;4.10;2.13;;;;;;;7.27;100.00;97241.84;5033738;28;20208;-67
2024/02/21 00:58:34;;;;;;;6.67;2.40;;;;;;;7.19;100.00;97235.59;5033561;28;20232;-68
2024/02/21 01:01:03;;;;;;;4.87;2.20;;;;;;;7.47;100.00;97231.28;5033627;28;20418;-67
2024/02/21 01:03:29;;;;;;;5.10;2.30;;;;;;;7.13;100.00;97231.72;5032711;28;20292;-68
2024/02/21 01:05:56;;;;;;;9.40;2.17;;;;;;;7.15;100.00;97228.97;5034105;28;20221;-67
2024/02/21 01:08:22;;;;;;;5.07;2.13;;;;;;;7.13;100.00;97228.25;5036348;28;20581;-67
2024/02/21 01:10:49;;;;;;;7.83;1.97;;;;;;;7.26;100.00;97221.00;5037686;28;20201;-68
2024/02/21 01:13:15;;;;;;;7.13;1.90;;;;;;;7.31;100.00;97220.47;5036866;28;20227;-68
2024/02/21 01:15:42;;;;;;;7.37;2.50;;;;;;;7.28;100.00;97215.50;5038683;28;20649;-67
2024/02/21 01:18:10;;;;;;;10.37;2.30;;;;;;;7.26;100.00;97205.28;5037765;28;20646;-66
2024/02/21 01:20:36;;;;;;;4.83;2.30;;;;;;;7.24;100.00;97201.97;5038632;28;20373;-67
2024/02/21 01:23:03;;;;;;;6.80;2.47;;;;;;;7.31;100.00;97199.50;5037300;28;20229;-68
2024/02/21 01:25:29;;;;;;;7.20;2.10;;;;;;;7.08;100.00;97196.41;5037359;28;20221;-67
2024/02/21 01:27:56;;;;;;;7.63;1.60;;;;;;;7.14;100.00;97188.84;5038073;28;20664;-68
2024/02/21 01:30:22;;;;;;;6.70;1.90;;;;;;;7.28;100.00;97194.53;5038063;28;20209;-67
2024/02/21 01:32:49;;;;;;;4.67;2.00;;;;;;;6.93;100.00;97187.22;5036799;28;20225;-67
2024/02/21 01:35:18;;;;;;;4.53;1.90;;;;;;;7.07;100.00;97186.88;5038455;28;20509;-66
2024/02/21 01:37:44;;;;;;;6.37;2.27;;;;;;;6.91;100.00;97189.13;5038419;28;20212;-68
2024/02/21 01:40:12;;;;;;;7.90;2.17;;;;;;;6.99;100.00;97178.84;5037107;28;20862;-67
2024/02/21 01:42:39;;;;;;;5.97;2.27;;;;;;;7.01;100.00;97177.72;5036924;28;20221;-68
2024/02/21 01:45:06;;;;;;;5.93;2.00;;;;;;;6.98;100.00;97174.56;5038467;28;20699;-67
2024/02/21 01:47:33;;;;;;;5.87;2.07;;;;;;;6.98;100.00;97174.56;5037715;28;20197;-67
2024/02/21 01:50:01;;;;;;;6.03;2.53;;;;;;;7.14;100.00;97169.63;5037232;28;20201;-67
2024/02/21 01:52:30;;;;;;;4.13;1.90;;;;;;;6.98;100.00;97166.69;5036683;28;20510;-67
2024/02/21 01:54:58;;;;;;;9.07;2.80;;;;;;;7.11;100.00;97148.94;5037386;28;20193;-66
2024/02/21 01:57:25;;;;;;;5.20;1.97;;;;;;;7.14;100.00;97153.91;5037434;28;20224;-67
2024/02/21 01:59:51;;;;;;;4.43;2.47;;;;;;;6.95;100.00;97154.69;5037582;28;20208;-67
2024/02/21 02:02:18;;;;;;;3.90;2.03;;;;;;;6.96;100.00;97155.50;5036230;28;20715;-68
2024/02/21 02:04:46;;;;;;;6.23;2.27;;;;;;;7.06;100.00;97145.91;5037388;28;20745;-67
2024/02/21 02:07:12;;;;;;;7.10;1.70;;;;;;;6.99;100.00;97144.78;5037128;28;20205;-67
2024/02/21 02:09:40;;;;;;;5.43;1.93;;;;;;;6.97;100.00;97147.50;5036167;28;20974;-67
2024/02/21 02:12:07;;;;;;;9.00;2.30;;;;;;;6.94;100.00;97142.56;5036537;28;20231;-67
2024/02/21 02:14:34;;;;;;;7.50;2.53;;;;;;;6.79;100.00;97137.81;5037188;28;20204;-67
2024/02/21 02:17:00;;;;;;;7.77;2.30;;;;;;;7.05;100.00;97121.50;5037812;28;20201;-68
2024/02/21 02:19:27;;;;;;;4.67;1.90;;;;;;;7.08;100.00;97123.03;5035300;28;20208;-67
2024/02/21 02:21:57;;;;;;;5.53;2.60;;;;;;;7.22;100.00;97114.75;5036750;28;20229;-68
2024/02/21 02:24:25;;;;;;;8.47;2.63;;;;;;;7.28;100.00;97117.69;5036453;28;20215;-68
2024/02/21 02:26:52;;;;;;;6.83;2.20;;;;;;;7.00;100.00;97120.22;5038088;28;20229;-67
2024/02/21 02:29:19;;;;;;;6.10;2.10;;;;;;;7.04;100.00;97116.38;5036672;28;20230;-68
2024/02/21 02:31:45;;;;;;;5.53;2.17;;;;;;;7.16;100.00;97112.69;5036670;28;20571;-68
2024/02/21 02:34:12;;;;;;;6.37;2.40;;;;;;;7.08;100.00;97115.16;5037060;28;20200;-66
2024/02/21 02:36:38;;;;;;;5.73;2.70;;;;;;;6.78;100.00;97110.81;5037333;28;20208;-68
2024/02/21 02:39:05;;;;;;;7.47;2.30;;;;;;;6.86;100.00;97104.88;5036589;28;20581;-67
2024/02/21 02:41:35;;;;;;;6.70;2.10;;;;;;;7.04;100.00;97101.50;5035513;28;20220;-67
2024/02/21 02:44:02;;;;;;;7.70;2.40;;;;;;;6.85;100.00;97096.19;5036893;28;20471;-67
2024/02/21 02:46:28;;;;;;;5.17;2.30;;;;;;;7.00;100.00;97087.00;5036343;28;20224;-67
2024/02/21 02:48:55;;;;;;;4.57;1.80;;;;;;;6.89;100.00;97091.53;5037438;28;20204;-67
2024/02/21 02:51:22;;;;;;;5.90;2.23;;;;;;;6.94;100.00;97089.34;5034869;28;20253;-66
2024/02/21 02:53:48;;;;;;;11.97;3.00;;;;;;;6.94;100.00;97082.28;5036632;28;20201;-67
2024/02/21 02:56:15;;;;;;;7.63;2.10;;;;;;;7.03;100.00;97089.34;5035432;28;20869;-66
2024/02/21 02:58:44;;;;;;;3.60;2.00;;;;;;;7.32;100.00;97085.81;5037653;28;20205;-68
2024/02/21 03:01:10;;;;;;;4.50;2.03;;;;;;;7.28;100.00;97087.03;5035174;28;20743;-67
2024/02/21 03:03:37;;;;;;;4.97;2.00;;;;;;;7.19;100.00;97083.56;5035976;28;20685;-67
2024/02/21 03:06:04;;;;;;;8.97;2.40;;;;;;;7.18;100.00;97081.91;5035940;28;20228;-67
2024/02/21 03:08:31;;;;;;;6.37;2.47;;;;;;;7.20;100.00;97080.00;5035608;28;20209;-66
2024/02/21 03:10:57;;;;;;;10.40;2.60;;;;;;;7.07;100.00;97084.66;5036055;28;20201;-67
2024/02/21 03:13:24;;;;;;;5.70;2.20;;;;;;;7.06;100.00;97083.00;5035014;28;20711;-67
2024/02/21 03:15:51;;;;;;;8.57;2.80;;;;;;;7.18;100.00;97074.91;5036217;28;20192;-67
2024/02/21 03:18:18;;;;;;;6.57;2.63;;;;;;;7.21;100.00;97071.16;5035934;28;20201;-66
2024/02/21 03:20:45;;;;;;;5.07;2.67;;;;;;;6.99;100.00;97066.19;5036144;28;20210;-66
2024/02/21 03:23:11;;;;;;;4.90;2.23;;;;;;;6.92;100.00;97062.44;5034658;28;20251;-67
2024/02/21 03:25:38;;;;;;;3.57;2.20;;;;;;;7.09;100.00;97067.00;5035271;28;20217;-66
2024/02/21 03:28:04;;;;;;;6.53;2.47;;;;;;;7.22;100.00;97067.56;5036093;28;20460;-66
2024/02/21 03:30:31;;;;;;;5.73;2.63;;;;;;;6.89;100.00;97062.72;5034921;28;20205;-66
2024/02/21 03:32:59;;;;;;;6.37;2.43;;;;;;;7.25;100.00;97077.78;5035121;28;20221;-66
2024/02/21 03:35:26;;;;;;;7.70;2.37;;;;;;;7.10;100.00;97073.91;5035008;28;20602;-68
2024/02/21 03:37:53;;;;;;;7.57;2.23;;;;;;;7.08;100.00;97070.59;5035541;28;20747;-66
2024/02/21 03:40:19;;;;;;;8.60;2.80;;;;;;;7.21;100.00;97069.38;5033357;28;20496;-67
2024/02/21 03:42:45;;;;;;;7.27;2.10;;;;;;;7.01;100.00;97066.84;5034777;28;20232;-67
2024/02/21 03:45:12;;;;;;;5.23;2.27;;;;;;;7.18;100.00;97060.94;5035639;28;21001;-67
2024/02/21 03:47:39;;;;;;;8.47;2.63;;;;;;;6.86;100.00;97060.34;5035590;28;20374;-67
2024/02/21 03:50:08;;;;;;;8.60;2.43;;;;;;;7.33;100.00;97056.00;5035561;28;20247;-67
2024/02/21 03:52:34;;;;;;;4.10;2.07;;;;;;;6.77;100.00;97056.75;5035191;28;20229;-67
2024/02/21 03:55:01;;;;;;;3.00;1.77;;;;;;;6.89;100.00;97050.41;5036318;28;20275;-67
2024/02/21 03:57:27;;;;;;;7.87;2.50;;;;;;;7.13;100.00;97042.16;5034795;28;20205;-67
2024/02/21 03:59:54;;;;;;;6.27;2.40;;;;;;;7.29;100.00;97038.91;5036100;28;20197;-67
2024/02/21 04:02:20;;;;;;;14.97;3.90;;;;;;;7.17;100.00;97033.91;5034849;28;20730;-67
2024/02/21 04:04:47;;;;;;;5.43;2.60;;;;;;;7.18;100.00;97037.34;5035398;28;20216;-67
2024/02/21 04:07:15;;;;;;;12.03;4.37;;;;;;;7.46;100.00;97043.44;5035825;28;21301;-66
2024/02/21 04:09:42;;;;;;;14.13;4.73;;;;;;;7.22;100.00;97038.72;5036151;28;20581;-67
2024/02/21 04:12:09;;;;;;;15.20;4.97;;;;;;;7.31;100.00;97036.94;5034735;28;20430;-67
2024/02/21 04:14:35;;;;;;;19.17;5.30;;;;;;;7.15;100.00;97038.44;5035179;28;20202;-66
2024/02/21 04:17:02;;;;;;;13.70;3.87;;;;;;;7.12;100.00;97030.06;5035810;28;20224;-67
2024/02/21 04:19:28;;;;;;;17.57;5.23;;;;;;;7.05;100.00;97023.69;5035082;28;20205;-66
2024/02/21 04:21:55;;;;;;;25.73;8.73;;;;;;;6.97;100.00;97021.75;5034616;28;21048;-66
2024/02/21 04:24:23;;;;;;;15.00;4.83;;;;;;;7.30;100.00;97003.81;5035517;28;20201;-66
2024/02/21 04:26:49;;;;;;;7.47;2.63;;;;;;;7.19;100.00;96995.28;5035307;28;20606;-67
2024/02/21 04:29:16;;;;;;;10.53;4.60;;;;;;;7.06;100.00;96994.72;5035148;28;20212;-66
2024/02/21 04:31:42;;;;;;;13.10;3.77;;;;;;;7.12;100.00;96996.81;5034681;28;20320;-67
2024/02/21 04:34:09;;;;;;;10.67;2.40;;;;;;;7.20;100.00;96998.75;5035374;28;20205;-68
2024/02/21 04:36:35;;;;;;;13.73;4.57;;;;;;;7.12;100.00;96986.31;5034768;28;20197;-67
2024/02/21 04:39:01;;;;;;;16.13;5.43;;;;;;;7.10;100.00;96990.84;5035013;28;20595;-67
2024/02/21 04:41:29;;;;;;;22.43;6.30;;;;;;;7.41;100.00;96987.16;5035293;28;20225;-67
2024/02/21 04:43:56;;;;;;;21.27;3.57;;;;;;;7.22;100.00;96986.31;5038975;28;20664;-67
2024/02/21 04:46:22;;;;;;;12.40;4.60;;;;;;;7.18;100.00;96985.78;5039249;28;20388;-67
2024/02/21 04:48:49;;;;;;;23.53;8.00;;;;;;;7.24;100.00;96981.78;5039078;28;20197;-66
2024/02/21 04:51:15;;;;;;;26.00;6.03;;;;;;;7.22;100.00;96974.03;5038448;28;20698;-67
2024/02/21 04:53:42;;;;;;;7.47;2.53;;;;;;;7.43;100.00;96970.31;5038672;28;20534;-67
2024/02/21 04:56:08;;;;;;;6.30;2.13;;;;;;;7.56;100.00;96967.38;5039485;28;20467;-67
2024/02/21 04:58:40;;;;;;;3.30;1.80;;;;;;;7.56;100.00;96959.50;5038054;28;20214;-68
2024/02/21 05:01:07;;;;;;;6.77;2.33;;;;;;;7.53;100.00;96958.00;5039250;28;20672;-67
2024/02/21 05:03:34;;;;;;;7.07;1.77;;;;;;;7.53;100.00;96958.00;5038163;28;20220;-66
2024/02/21 05:06:00;;;;;;;2.60;1.70;;;;;;;7.47;100.00;96952.47;5038778;28;20221;-67
2024/02/21 05:08:27;;;;;;;4.67;2.00;;;;;;;7.49;100.00;96951.38;5038143;28;20204;-67
2024/02/21 05:10:54;;;;;;;5.57;2.40;;;;;;;7.40;100.00;96946.97;5038616;28;20408;-67
2024/02/21 05:13:21;;;;;;;4.93;2.30;;;;;;;7.38;100.00;96945.47;5037383;28;20229;-67
2024/02/21 05:15:48;;;;;;;5.13;2.40;;;;;;;7.44;100.00;96939.66;5038762;28;20209;-67
2024/02/21 05:18:15;;;;;;;4.37;2.10;;;;;;;7.40;100.00;96923.38;5038461;28;20205;-68
2024/02/21 05:20:42;;;;;;;4.57;2.00;;;;;;;7.28;100.00;96919.28;5039361;28;20197;-68
2024/02/21 05:23:08;;;;;;;3.27;2.00;;;;;;;7.41;100.00;96909.31;5037544;28;20236;-66
2024/02/21 05:25:35;;;;;;;4.20;1.70;;;;;;;7.34;100.00;96902.13;5038065;28;20656;-68
2024/02/21 05:28:03;;;;;;;4.33;1.90;;;;;;;7.38;100.00;96906.13;5038862;28;21090;-68
2024/02/21 05:30:29;;;;;;;6.03;2.00;;;;;;;7.11;100.00;96913.09;5037918;28;20235;-67
2024/02/21 05:32:57;;;;;;;2.80;1.83;;;;;;;7.32;100.00;96896.22;5037979;28;20231;-68
2024/02/21 05:35:27;;;;;;;4.63;2.13;;;;;;;7.27;100.00;96899.25;5037900;28;20919;-67
2024/02/21 05:37:53;;;;;;;6.53;2.10;;;;;;;6.87;100.00;96903.03;5038868;28;20259;-68
2024/02/21 05:40:20;;;;;;;5.70;2.33;;;;;;;7.04;100.00;96894.47;5037420;28;20667;-68
2024/02/21 05:42:46;;;;;;;5.77;2.30;;;;;;;6.98;100.00;96908.13;5037903;28;20513;-67
2024/02/21 05:45:13;;;;;;;17.87;3.43;;;;;;;6.84;100.00;96908.53;5038378;28;20201;-67
2024/02/21 05:47:39;;;;;;;7.83;3.00;;;;;;;6.71;100.00;96913.22;5037789;28;20225;-68
2024/02/21 05:50:08;;;;;;;15.93;3.77;;;;;;;6.88;100.00;96909.09;5037830;28;20209;-67
2024/02/21 05:52:35;;;;;;;22.10;6.93;;;;;;;6.72;100.00;96906.19;5036688;28;20249;-67
2024/02/21 05:55:01;;;;;;;10.93;3.40;;;;;;;6.90;100.00;96915.03;5037561;28;20371;-67
2024/02/21 05:57:28;;;;;;;10.77;3.37;;;;;;;6.83;100.00;96914.75;5037270;28;20213;-67
2024/02/21 05:59:54;;;;;;;10.37;3.93;;;;;;;6.83;100.00;96909.50;5037822;28;20703;-68
2024/02/21 06:02:21;;;;;;;9.07;3.73;;;;;;;6.75;100.00;96917.22;5036546;28;20231;-66
2024/02/21 06:04:47;;;;;;;11.60;3.80;;;;;;;6.78;100.00;96919.59;5037404;28;20719;-68
2024/02/21 06:07:15;;;;;;;5.57;3.13;;;;;;;6.93;100.00;96927.84;5038096;28;20693;-66
2024/02/21 06:09:42;;;;;;;6.03;2.80;;;;;;;6.73;100.00;96921.78;5037466;28;20680;-68
2024/02/21 06:12:08;;;;;;;7.93;2.67;;;;;;;6.79;100.00;96923.84;5037656;28;20240;-68
2024/02/21 06:14:35;;;;;;;7.37;3.77;;;;;;;6.67;100.00;96924.13;5037946;28;20217;-66
2024/02/21 06:17:02;;;;;;;11.00;3.50;;;;;;;6.79;100.00;96917.78;5038406;28;20671;-67
2024/02/21 06:19:28;;;;;;;10.93;3.80;;;;;;;6.81;100.00;96921.09;5037398;28;20236;-69
2024/02/21 06:21:55;;;;;;;8.97;3.40;;;;;;;6.81;100.00;96911.44;5037860;28;20601;-69
2024/02/21 06:24:23;;;;;;;7.83;3.53;;;;;;;6.96;100.00;96914.47;5038184;28;20209;-67
2024/02/21 06:26:49;;;;;;;8.70;3.33;;;;;;;6.72;100.00;96900.94;5037897;28;20312;-69
2024/02/21 06:29:16;;;;;;;12.80;4.40;;;;;;;6.48;100.00;96911.03;5037446;28;20201;-67
2024/02/21 06:31:42;;;;;;;11.00;4.70;;;;;;;6.47;100.00;96898.88;5034060;28;20225;-67
2024/02/21 06:34:09;;;;;;;8.17;4.13;;;;;;;6.45;100.00;96886.91;5037314;28;20586;-69
2024/02/21 06:36:35;;;;;;;5.37;3.20;;;;;;;6.48;100.00;96897.09;5035842;28;20201;-69
2024/02/21 06:39:04;;;;;;;6.10;3.03;;;;;;;6.61;100.00;96901.09;5037805;28;20202;-67
2024/02/21 06:41:34;;;;;;;7.07;3.00;;;;;;;6.49;100.00;96910.06;5035102;28;20217;-69
2024/02/21 06:44:00;;;;;;;4.60;2.20;;;;;;;6.32;100.00;96912.50;5036670;28;20202;-68
2024/02/21 06:46:28;;;;;;;11.07;2.23;;;;;;;6.48;100.00;96915.41;5034817;28;20221;-68
2024/02/21 06:48:56;;;;;;;4.33;2.13;;;;;;;6.53;100.00;96914.06;5036080;28;20282;-68
2024/02/21 06:51:22;;;;;;;3.47;1.83;;;;;;;6.68;100.00;96916.13;5035701;28;20701;-69
2024/02/21 06:53:49;;;;;;;3.27;2.20;;;;;;;6.70;100.00;96922.03;5035233;28;20201;-69
2024/02/21 06:56:15;;;;;;;5.20;1.90;;;;;;;6.78;100.00;96916.97;5035797;28;20311;-68
2024/02/21 06:58:43;;;;;;;3.63;2.10;;;;;;;6.98;100.00;96912.56;5035701;28;20201;-69
2024/02/21 07:01:10;;;;;;;4.50;2.30;;;;;;;6.91;100.00;96909.66;5036844;28;20205;-69
2024/02/21 07:03:36;;;;;;;3.43;1.90;;;;;;;6.88;100.00;96909.09;5035568;28;20206;-68
2024/02/21 07:06:03;;;;;;;5.83;2.43;;;;;;;6.83;100.00;96903.44;5036918;28;20213;-68
2024/02/21 07:08:29;;;;;;;6.77;2.57;;;;;;;6.79;100.00;96904.69;5035598;28;20212;-70
2024/02/21 07:10:56;;;;;;;8.50;2.53;;;;;;;7.02;100.00;96888.53;5036891;28;20200;-70
2024/02/21 07:13:22;;;;;;;4.67;1.73;;;;;;;6.84;100.00;96887.59;5035019;28;20622;-71
2024/02/21 07:15:50;;;;;;;6.50;2.57;;;;;;;7.29;100.00;96888.63;5035727;28;20648;-70
2024/02/21 07:18:17;;;;;;;3.93;2.20;;;;;;;7.17;100.00;96891.56;5036668;28;20209;-70
2024/02/21 07:20:43;;;;;;;3.30;2.17;;;;;;;7.20;100.00;96886.03;5036554;28;20201;-69
2024/02/21 07:23:10;;;;;;;3.37;1.80;;;;;;;7.18;100.00;96885.34;5035776;28;20229;-69
2024/02/21 07:25:36;;;;;;;3.77;1.50;;;;;;;7.06;100.00;96886.47;5036802;28;20224;-69
2024/02/21 07:28:03;;;;;;;6.97;2.50;;;;;;;7.00;100.00;96877.38;5036243;28;20282;-69
2024/02/21 07:30:29;;;;;;;4.23;2.33;;;;;;;6.99;100.00;96888.81;5035727;28;21106;-69
2024/02/21 07:32:57;;;;;;;4.13;1.90;;;;;;;7.36;100.00;96890.53;5036462;28;20217;-70
2024/02/21 07:35:25;;;;;;;4.00;1.73;;;;;;;7.30;100.00;96891.09;5036413;28;20209;-70
2024/02/21 07:37:51;;;;;;;3.13;1.73;;;;;;;7.24;100.00;96887.41;5035863;28;20197;-70
2024/02/21 07:40:18;;;;;;;3.70;1.30;;;;;;;7.35;100.00;96891.50;5036046;28;20585;-70
2024/02/21 07:42:45;;;;;;;5.63;1.57;;;;;;;7.46;100.00;96893.16;5035985;28;20217;-70
2024/02/21 07:45:11;;;;;;;3.47;1.60;;;;;;;7.21;100.00;96880.66;5036475;28;20209;-70
2024/02/21 07:47:38;;;;;;;2.73;1.60;;;;;;;7.55;100.00;96877.38;5034556;28;20231;-70
2024/02/21 07:50:08;;;;;;;2.53;1.40;;;;;;;7.92;100.00;96875.59;5036761;28;20770;-70
2024/02/21 07:52:35;;;;;;;3.17;1.40;;;;;;;7.83;100.00;96879.09;5035471;28;20237;-69
2024/02/21 07:55:01;;;;;;;2.47;1.60;;;;;;;7.53;100.00;96874.06;5035976;28;20208;-68
2024/02/21 07:57:28;;;;;;;4.27;1.80;;;;;;;7.72;100.00;96867.94;5036178;28;20547;-69
2024/02/21 07:59:55;;;;;;;3.80;1.83;;;;;;;7.61;100.00;96862.88;5036144;28;20197;-68
2024/02/21 08:02:21;;;;;;;2.40;1.77;;;;;;;7.70;100.00;96859.38;5035168;28;20235;-69
2024/02/21 08:04:48;;;;;;;4.63;1.67;;;;;;;7.62;100.00;96862.72;5034551;28;20672;-67
2024/02/21 08:07:15;;;;;;;4.83;1.70;;;;;;;7.69;100.00;96862.97;5035651;28;20235;-68
2024/02/21 08:09:42;;;;;;;6.40;1.53;;;;;;;7.70;100.00;96857.59;5033638;28;20204;-68
2024/02/21 08:12:08;;;;;;;4.13;2.37;;;;;;;7.63;100.00;96851.25;5035836;28;20600;-68
2024/02/21 08:14:35;;;;;;;7.90;1.90;;;;;;;8.00;100.00;96849.44;5035587;28;20228;-68
2024/02/21 08:17:01;;;;;;;3.93;1.30;;;;;;;7.76;100.00;96851.75;5034600;28;20197;-69
2024/02/21 08:19:28;;;;;;;5.77;2.23;;;;;;;7.90;100.00;96852.13;5035393;28;20610;-68
2024/02/21 08:21:54;;;;;;;4.80;2.03;;;;;;;7.93;100.00;96843.94;5034865;28;20244;-68
2024/02/21 08:24:23;;;;;;;4.00;2.20;;;;;;;8.13;100.00;96855.16;5035142;28;20201;-68
2024/02/21 08:26:49;;;;;;;2.90;1.53;;;;;;;8.24;100.00;96850.56;5035497;28;20620;-68
2024/02/21 08:29:16;;;;;;;2.83;1.63;;;;;;;8.51;100.00;96846.09;5035603;28;20209;-68
2024/02/21 08:31:42;;;;;;;3.30;2.00;;;;;;;7.93;100.00;96846.56;5034050;28;20217;-68
2024/02/21 08:34:09;;;;;;;4.13;2.10;;;;;;;8.52;100.00;96839.84;5035201;28;20232;-68
2024/02/21 08:36:36;;;;;;;4.03;1.60;;;;;;;8.26;100.00;96826.78;5035165;28;20205;-69
2024/02/21 08:39:04;;;;;;;3.70;1.77;;;;;;;8.29;100.00;96821.25;5034863;28;20198;-68
2024/02/21 08:41:33;;;;;;;3.20;1.67;;;;;;;8.53;100.00;96822.31;5034001;28;20227;-68
2024/02/21 08:44:00;;;;;;;6.63;2.30;;;;;;;8.71;100.00;96813.41;5036000;28;20301;-68
2024/02/21 08:46:27;;;;;;;1.57;1.30;;;;;;;8.62;100.00;96809.06;5033320;28;20204;-68
2024/02/21 08:48:54;;;;;;;4.47;2.10;;;;;;;8.77;100.00;96802.31;5032396;28;20197;-68
2024/02/21 08:51:21;;;;;;;2.53;1.70;;;;;;;8.76;100.00;96816.41;5033994;28;20480;-69
2024/02/21 08:53:48;;;;;;;2.70;1.60;;;;;;;8.98;100.00;96812.50;5036825;28;20262;-68
2024/02/21 08:56:15;;;;;;;2.67;1.87;;;;;;;9.27;100.00;96806.75;5034372;28;20684;-68
2024/02/21 08:58:43;;;;;;;2.97;1.40;;;;;;;9.26;100.00;96804.31;5034887;28;20344;-68
2024/02/21 09:01:10;;;;;;;4.60;1.67;;;;;;;9.17;100.00;96807.84;5034721;28;20238;-69
2024/02/21 09:03:37;;;;;;;5.47;2.00;;;;;;;8.97;100.00;96803.75;5035041;28;20201;-68
2024/02/21 09:06:04;;;;;;;3.37;1.63;;;;;;;9.19;100.00;96804.09;5035033;28;20197;-68
2024/02/21 09:08:30;;;;;;;2.07;1.20;;;;;;;9.08;100.00;96798.28;5034928;28;20239;-68
2024/02/21 09:10:57;;;;;;;3.10;1.40;;;;;;;9.37;100.00;96790.91;5035375;28;20212;-68
2024/02/21 09:13:23;;;;;;;4.07;1.80;;;;;;;9.27;100.00;96785.72;5033877;28;20703;-68
2024/02/21 09:15:51;;;;;;;2.30;1.33;;;;;;;9.42;100.00;96781.53;5033977;28;20209;-68
2024/02/21 09:18:17;;;;;;;2.30;1.40;;;;;;;9.55;100.00;96781.13;5035465;28;20197;-68
2024/02/21 09:20:44;;;;;;;4.00;1.83;;;;;;;9.60;100.00;96774.41;5034815;28;20212;-68
2024/02/21 09:23:11;;;;;;;4.03;1.67;;;;;;;9.88;100.00;96770.56;5033642;28;20600;-68
2024/02/21 09:25:36;;;;;;;5.03;1.70;;;;;;;9.83;100.00;96773.66;5034784;28;20213;-68
2024/02/21 09:28:03;;;;;;;2.87;1.63;;;;;;;9.95;100.00;96774.19;5036182;28;20228;-68
2024/02/21 09:30:30;;;;;;;1.90;1.47;;;;;;;9.96;100.00;96766.16;5037942;28;20213;-68
2024/02/21 09:32:59;;;;;;;3.83;1.63;;;;;;;10.08;100.00;96762.25;5037681;28;20232;-68
2024/02/21 09:35:26;;;;;;;3.37;1.80;;;;;;;9.76;100.00;96762.13;5038032;28;21045;-68
2024/02/21 09:37:53;;;;;;;1.87;1.27;;;;;;;9.98;100.00;96766.00;5038524;28;20239;-68
2024/02/21 09:40:19;;;;;;;3.53;1.80;;;;;;;9.67;100.00;96756.97;5037911;28;20702;-68
2024/02/21 09:42:48;;;;;;;5.90;1.97;;;;;;;10.06;100.00;96751.06;5037761;28;20225;-68
2024/02/21 09:45:20;;;;;;;3.90;1.67;;;;;;;10.34;100.00;96741.88;5038411;28;20205;-68
2024/02/21 09:48:00;;;;;;;3.33;1.60;;;;;;;10.78;100.00;96735.28;5037049;28;20225;-68
2024/02/21 09:50:30;;;;;;;3.47;1.80;;;;;;;10.97;100.00;96739.22;5037501;28;20649;-68
2024/02/21 09:52:57;;;;;;;2.43;1.43;;;;;;;10.83;100.00;96736.41;5036926;28;20217;-68
2024/02/21 09:55:26;;;;;;;3.47;1.40;;;;;;;10.92;100.00;96743.38;5037927;28;20703;-68
2024/02/21 09:57:54;;;;;;;2.73;1.10;;;;;;;11.18;100.00;96738.69;5037447;28;20715;-68
2024/02/21 10:00:22;;;;;;;2.97;1.00;;;;;;;10.88;100.00;96735.94;5038141;28;20679;-68
2024/02/21 10:02:49;;;;;;;9.73;1.20;;;;;;;10.88;100.00;96723.56;5036546;28;20723;-68
2024/02/21 10:05:17;;;;;;;4.20;1.27;;;;;;;10.90;100.00;96718.16;5036689;28;20675;-68
2024/02/21 10:07:45;;;;;;;2.73;0.90;;;;;;;10.85;100.00;96715.19;5037404;28;20266;-68
2024/02/21 10:10:12;;;;;;;2.33;1.03;;;;;;;10.86;100.00;96719.44;5037828;28;20202;-68
2024/02/21 10:12:49;;;;;;;1.93;1.20;;;;;;;11.15;99.07;96726.66;5036384;28;20723;-68
2024/02/21 10:15:21;;;;;;;2.93;1.27;;;;;;;11.47;98.29;96716.00;5037007;28;20205;-68
2024/02/21 10:17:48;;;;;;;10.30;1.50;;;;;;;11.21;97.23;96718.06;5038387;28;20259;-68
2024/02/21 10:20:15;;;;;;;4.63;0.80;;;;;;;11.43;96.71;96727.06;5037143;28;20212;-68
2024/02/21 10:22:41;;;;;;;5.50;1.83;;;;;;;11.48;95.77;96712.38;5035144;28;20235;-69
2024/02/21 10:25:10;;;;;;;4.00;1.50;;;;;;;11.73;95.25;96703.38;5037074;28;20214;-68
2024/02/21 10:27:37;;;;;;;1.30;1.00;;;;;;;11.30;95.11;96706.50;5036884;28;20233;-68
2024/02/21 10:30:05;;;;;;;2.97;1.47;;;;;;;11.37;94.44;96714.56;5037721;28;20205;-68
2024/02/21 10:32:31;;;;;;;3.13;1.30;;;;;;;11.74;94.76;96705.03;5036227;28;20231;-68
2024/02/21 10:35:03;;;;;;;2.40;1.37;;;;;;;11.74;93.18;96697.13;5038034;28;20201;-68
2024/02/21 10:37:29;;;;;;;1.87;1.33;;;;;;;11.65;93.16;96698.97;5037529;28;20414;-68
2024/02/21 10:39:56;;;;;;;1.57;1.07;;;;;;;11.54;93.07;96685.31;5036678;28;20201;-68
2024/02/21 10:42:30;;;;;;;1.40;1.03;;;;;;;12.07;92.63;96685.38;5034504;28;20306;-68
2024/02/21 10:45:04;;;;;;;1.40;1.00;;;;;;;11.71;91.54;96679.81;5035913;28;20260;-68
2024/02/21 10:47:34;;;;;;;1.13;0.70;;;;;;;11.95;92.45;96676.19;5033661;28;20484;-68
2024/02/21 10:50:05;;;;;;;2.97;1.30;;;;;;;11.97;91.32;96676.84;5032937;28;20262;-68
2024/02/21 10:52:52;;;;;;;2.37;1.40;;;;;;;12.10;90.95;96662.06;5032447;28;20221;-68
2024/02/21 10:55:23;;;;;;;1.80;0.93;;;;;;;12.46;91.21;96661.28;5034599;28;20216;-68
2024/02/21 10:57:51;;;;;;;1.63;1.10;;;;;;;12.37;88.69;96662.34;5035386;28;20194;-68
2024/02/21 11:00:18;;;;;;;2.53;0.83;;;;;;;12.40;88.50;96661.97;5033782;28;20212;-68
2024/02/21 11:02:45;;;;;;;4.40;1.73;;;;;;;12.37;86.68;96657.06;5032456;28;20232;-69
2024/02/21 11:05:15;;;;;;;4.17;1.47;;;;;;;12.40;86.94;96656.69;5035209;28;20367;-69
2024/02/21 11:07:42;;;;;;;3.47;0.93;;;;;;;12.27;86.08;96639.78;5035848;28;21130;-68
2024/02/21 11:10:22;;;;;;;7.37;1.40;;;;;;;12.65;85.81;96644.91;5036222;28;20585;-68
2024/02/21 11:12:49;;;;;;;2.33;0.93;;;;;;;12.39;84.34;96647.13;5035214;28;20216;-68
2024/02/21 11:15:16;;;;;;;1.60;1.00;;;;;;;12.74;83.32;96640.34;5034591;28;20582;-68
2024/02/21 11:17:54;;;;;;;5.57;1.20;;;;;;;12.80;85.38;96636.00;5035777;28;20201;-68
2024/02/21 11:20:21;;;;;;;1.67;0.83;;;;;;;12.76;78.20;96631.25;5034793;28;20684;-68
2024/02/21 11:22:49;;;;;;;2.00;1.07;;;;;;;12.94;78.65;96624.63;5034170;28;20218;-68
2024/02/21 11:25:22;;;;;;;2.67;1.00;;;;;;;13.33;78.40;96619.88;5034579;28;20205;-68
2024/02/21 11:27:49;;;;;;;4.67;1.17;;;;;;;12.63;78.02;96607.25;5033344;28;20932;-69
2024/02/21 11:30:22;;;;;;;4.37;0.97;;;;;;;13.04;78.26;96608.50;5034221;28;20870;-68
2024/02/21 11:32:48;;;;;;;2.00;0.90;;;;;;;13.21;74.28;96599.34;5032708;28;20229;-68